createdAt,value
2018-06-18T00:01:26.940Z,101710.38
2018-06-18T00:03:55.437Z,101714.31
2018-06-18T00:06:23.820Z,101712.55
2018-06-18T00:08:52.222Z,101719.55
2018-06-18T00:11:20.591Z,101729.58
2018-06-18T00:13:49.005Z,101736.99
2018-06-18T00:16:17.379Z,101736.11
2018-06-18T00:18:45.770Z,101735.69
2018-06-18T00:21:14.193Z,101743.95
2018-06-18T00:23:42.603Z,101746.58
2018-06-18T00:26:10.988Z,101747.00
2018-06-18T00:28:39.386Z,101748.31
2018-06-18T00:31:08.135Z,101744.80
2018-06-18T00:33:36.554Z,101742.62
2018-06-18T00:36:04.927Z,101746.98
2018-06-18T00:38:33.326Z,101742.20
2018-06-18T00:41:01.694Z,101746.11
2018-06-18T00:43:30.103Z,101747.44
2018-06-18T00:45:58.483Z,101744.39
2018-06-18T00:48:26.895Z,101744.84
2018-06-18T00:50:55.238Z,101740.02
2018-06-18T00:53:23.652Z,101729.97
2018-06-18T00:56:03.511Z,101733.92
2018-06-18T00:58:31.932Z,101734.79
2018-06-18T01:01:00.402Z,101728.67
2018-06-18T01:03:28.835Z,101731.28
2018-06-18T01:05:57.215Z,101731.28
2018-06-18T01:08:25.615Z,101729.55
2018-06-18T01:10:54.003Z,101735.22
2018-06-18T01:13:22.441Z,101736.08
2018-06-18T01:15:50.811Z,101738.70
2018-06-18T01:18:19.215Z,101734.79
2018-06-18T01:20:47.603Z,101737.82
2018-06-18T01:23:26.681Z,101741.77
2018-06-18T01:25:55.054Z,101740.44
2018-06-18T01:28:23.453Z,101742.64
2018-06-18T01:30:51.835Z,101746.55
2018-06-18T01:33:20.244Z,101738.70
2018-06-18T01:35:48.671Z,101740.42
2018-06-18T01:38:17.088Z,101734.75
2018-06-18T01:40:45.454Z,101745.24
2018-06-18T01:43:13.820Z,101736.05
2018-06-18T01:45:42.215Z,101737.81
2018-06-18T01:48:10.581Z,101737.36
2018-06-18T01:50:38.984Z,101739.11
2018-06-18T01:53:07.391Z,101740.88
2018-06-18T01:55:35.787Z,101735.20
2018-06-18T01:58:04.154Z,101737.81
2018-06-18T02:00:32.552Z,101737.80
2018-06-18T02:03:00.921Z,101741.75
2018-06-18T02:05:29.314Z,101735.20
2018-06-18T02:07:57.695Z,101738.70
2018-06-18T02:10:26.111Z,101740.88
2018-06-18T02:12:54.615Z,101743.95
2018-06-18T02:15:24.458Z,101743.08
2018-06-18T02:17:53.086Z,101738.24
2018-06-18T02:20:21.519Z,101742.64
2018-06-18T02:22:49.900Z,101741.31
2018-06-18T02:25:18.292Z,101732.55
2018-06-18T02:27:51.936Z,101726.02
2018-06-18T02:30:25.651Z,101731.24
2018-06-18T02:32:59.316Z,101732.98
2018-06-18T02:35:33.063Z,101729.47
2018-06-18T02:38:06.951Z,101725.98
2018-06-18T02:40:40.671Z,101729.48
2018-06-18T02:43:09.044Z,101733.40
2018-06-18T02:45:37.444Z,101732.95
2018-06-18T02:48:05.819Z,101731.20
2018-06-18T02:50:34.221Z,101722.87
2018-06-18T02:53:02.586Z,101722.02
2018-06-18T02:55:30.962Z,101727.23
2018-06-18T02:57:59.367Z,101729.84
2018-06-18T03:00:27.764Z,101728.97
2018-06-18T03:02:56.171Z,101724.61
2018-06-18T03:05:24.567Z,101722.84
2018-06-18T03:07:53.672Z,101721.09
2018-06-18T03:10:22.041Z,101719.77
2018-06-18T03:12:50.449Z,101716.28
2018-06-18T03:15:18.847Z,101715.41
2018-06-18T03:17:47.255Z,101715.83
2018-06-18T03:20:21.055Z,101712.74
2018-06-18T03:23:52.851Z,101715.78
2018-06-18T03:26:26.657Z,101726.19
2018-06-18T03:29:00.352Z,101723.98
2018-06-18T03:31:28.729Z,101718.27
2018-06-18T03:33:57.124Z,101726.54
2018-06-18T03:36:25.502Z,101727.85
2018-06-18T03:38:53.902Z,101728.25
2018-06-18T03:41:22.275Z,101728.26
2018-06-18T03:43:55.831Z,101730.00
2018-06-18T03:46:24.207Z,101732.63
2018-06-18T03:48:52.607Z,101733.97
2018-06-18T03:51:20.982Z,101731.39
2018-06-18T03:53:49.377Z,101736.77
2018-06-18T03:56:17.818Z,101739.95
2018-06-18T03:58:46.203Z,101730.84
2018-06-18T04:01:31.150Z,101730.47
2018-06-18T04:04:07.443Z,101732.25
2018-06-18T04:06:41.018Z,101729.63
2018-06-18T04:09:14.627Z,101730.92
2018-06-18T04:11:48.394Z,101738.77
2018-06-18T04:14:17.007Z,101747.08
2018-06-18T04:16:45.567Z,101747.97
2018-06-18T04:19:13.978Z,101752.33
2018-06-18T04:21:42.350Z,101752.77
2018-06-18T04:24:10.931Z,101759.34
2018-06-18T04:26:39.335Z,101763.72
2018-06-18T04:29:07.790Z,101763.70
2018-06-18T04:31:36.251Z,101764.14
2018-06-18T04:34:16.691Z,101775.97
2018-06-18T04:36:45.063Z,101775.97
2018-06-18T04:39:13.462Z,101775.98
2018-06-18T04:41:47.349Z,101786.49
2018-06-18T04:44:21.118Z,101789.09
2018-06-18T04:46:54.848Z,101785.17
2018-06-18T04:49:28.676Z,101782.10
2018-06-18T04:51:57.043Z,101780.77
2018-06-18T04:54:25.430Z,101778.11
2018-06-18T04:56:53.831Z,101787.68
2018-06-18T04:59:22.200Z,101788.94
2018-06-18T05:01:50.596Z,101796.36
2018-06-18T05:04:18.980Z,101793.23
2018-06-18T05:06:47.389Z,101784.91
2018-06-18T05:10:28.595Z,101788.80
2018-06-18T05:12:56.974Z,101796.67
2018-06-18T05:15:28.532Z,101796.65
2018-06-18T05:17:56.902Z,101796.66
2018-06-18T05:20:25.358Z,101794.90
2018-06-18T05:22:53.710Z,101793.13
2018-06-18T05:25:22.097Z,101787.88
2018-06-18T05:27:50.553Z,101785.23
2018-06-18T05:30:22.707Z,101782.55
2018-06-18T05:32:51.091Z,101783.84
2018-06-18T05:35:19.478Z,101778.09
2018-06-18T05:37:58.796Z,101775.85
2018-06-18T05:40:27.207Z,101778.39
2018-06-18T05:42:55.611Z,101784.85
2018-06-18T05:45:23.986Z,101790.84
2018-06-18T05:47:52.395Z,101788.06
2018-06-18T05:50:20.811Z,101794.40
2018-06-18T05:52:49.179Z,101784.53
2018-06-18T05:55:17.550Z,101779.11
2018-06-18T05:57:45.959Z,101778.55
2018-06-18T06:00:14.381Z,101789.50
2018-06-18T06:02:42.812Z,101785.91
2018-06-18T06:05:11.204Z,101790.73
2018-06-18T06:07:39.603Z,101795.55
2018-06-18T06:10:07.966Z,101805.18
2018-06-18T06:12:36.367Z,101804.68
2018-06-18T06:15:04.773Z,101805.06
2018-06-18T06:17:33.165Z,101800.66
2018-06-18T06:20:01.546Z,101801.16
2018-06-18T06:22:30.005Z,101800.77
2018-06-18T06:24:58.363Z,101791.64
2018-06-18T06:27:26.736Z,101782.92
2018-06-18T06:29:55.137Z,101772.86
2018-06-18T06:32:23.515Z,101758.75
2018-06-18T06:34:56.526Z,101758.20
2018-06-18T06:37:25.067Z,101758.98
2018-06-18T06:39:53.667Z,101771.60
2018-06-18T06:42:22.030Z,101766.62
2018-06-18T06:44:50.422Z,101779.64
2018-06-18T06:47:18.793Z,101776.42
2018-06-18T06:49:47.190Z,101781.54
2018-06-18T06:52:15.558Z,101784.10
2018-06-18T06:54:43.946Z,101789.72
2018-06-18T06:57:12.319Z,101791.38
2018-06-18T06:59:40.714Z,101801.84
2018-06-18T07:02:09.078Z,101807.01
2018-06-18T07:04:37.479Z,101804.36
2018-06-18T07:07:05.855Z,101815.73
2018-06-18T07:09:34.263Z,101814.33
2018-06-18T07:12:02.630Z,101811.09
2018-06-18T07:14:31.046Z,101819.69
2018-06-18T07:16:59.431Z,101812.98
2018-06-18T07:19:27.834Z,101805.00
2018-06-18T07:21:56.211Z,101804.98
2018-06-18T07:24:24.634Z,101802.75
2018-06-18T07:26:53.018Z,101796.04
2018-06-18T07:29:21.413Z,101793.66
2018-06-18T07:31:49.788Z,101786.39
2018-06-18T07:34:18.211Z,101784.40
2018-06-18T07:36:46.579Z,101787.19
2018-06-18T07:39:14.999Z,101789.52
2018-06-18T07:41:43.398Z,101784.01
2018-06-18T07:44:11.766Z,101779.25
2018-06-18T07:46:40.157Z,101774.46
2018-06-18T07:49:08.540Z,101769.79
2018-06-18T07:51:37.010Z,101777.73
2018-06-18T07:54:05.351Z,101777.34
2018-06-18T07:56:33.747Z,101766.80
2018-06-18T07:59:02.127Z,101766.31
2018-06-18T08:01:30.541Z,101759.91
2018-06-18T08:03:58.915Z,101762.62
2018-06-18T08:06:27.314Z,101755.73
2018-06-18T08:08:55.714Z,101765.68
2018-06-18T08:11:24.119Z,101761.09
2018-06-18T08:13:52.514Z,101760.13
2018-06-18T08:16:20.933Z,101760.52
2018-06-18T08:18:49.405Z,101771.94
2018-06-18T08:21:17.794Z,101776.73
2018-06-18T08:23:46.260Z,101780.08
2018-06-18T08:26:14.635Z,101781.26
2018-06-18T08:28:42.998Z,101780.25
2018-06-18T08:31:11.381Z,101777.88
2018-06-18T08:33:39.759Z,101782.97
2018-06-18T08:36:08.166Z,101778.78
2018-06-18T08:38:36.539Z,101784.28
2018-06-18T08:41:04.939Z,101788.48
2018-06-18T08:43:33.310Z,101790.02
2018-06-18T08:46:01.706Z,101784.01
2018-06-18T08:48:35.453Z,101784.59
2018-06-18T08:51:09.146Z,101786.83
2018-06-18T08:53:42.994Z,101786.03
2018-06-18T08:56:16.844Z,101783.46
2018-06-18T08:58:50.678Z,101780.00
2018-06-18T09:01:54.568Z,101782.66
2018-06-18T09:04:28.418Z,101787.09
2018-06-18T09:07:03.719Z,101791.52
2018-06-18T09:09:32.103Z,101790.23
2018-06-18T09:12:00.517Z,101779.67
2018-06-18T09:14:28.982Z,101783.18
2018-06-18T09:16:57.399Z,101788.88
2018-06-18T09:19:25.777Z,101784.03
2018-06-18T09:21:54.179Z,101800.70
2018-06-18T09:24:26.706Z,101797.91
2018-06-18T09:27:00.546Z,101797.76
2018-06-18T09:29:28.922Z,101796.75
2018-06-18T09:31:57.378Z,101798.86
2018-06-18T09:34:25.747Z,101791.73
2018-06-18T09:36:54.127Z,101782.46
2018-06-18T09:39:22.530Z,101783.78
2018-06-18T09:41:50.915Z,101790.39
2018-06-18T09:44:19.453Z,101784.20
2018-06-18T09:46:47.977Z,101790.88
2018-06-18T09:49:21.811Z,101792.27
2018-06-18T09:51:55.579Z,101790.55
2018-06-18T09:54:29.323Z,101792.33
2018-06-18T09:57:03.120Z,101793.98
2018-06-18T09:59:41.114Z,101801.23
2018-06-18T10:02:10.626Z,101802.24
2018-06-18T10:04:39.051Z,101801.80
2018-06-18T10:07:07.427Z,101795.58
2018-06-18T10:09:36.086Z,101791.02
2018-06-18T10:12:04.475Z,101776.42
2018-06-18T10:14:32.907Z,101756.56
2018-06-18T10:17:01.306Z,101761.11
2018-06-18T10:19:29.699Z,101762.19
2018-06-18T10:21:58.076Z,101764.84
2018-06-18T10:24:26.504Z,101777.57
2018-06-18T10:26:54.941Z,101771.75
2018-06-18T10:29:23.339Z,101774.30
2018-06-18T10:31:51.702Z,101780.38
2018-06-18T10:34:25.376Z,101780.64
2018-06-18T10:36:59.170Z,101781.27
2018-06-18T10:39:32.989Z,101777.50
2018-06-18T10:42:06.802Z,101777.10
2018-06-18T10:44:35.203Z,101775.97
2018-06-18T10:47:03.600Z,101783.64
2018-06-18T10:49:32.000Z,101781.73
2018-06-18T10:52:00.380Z,101793.09
2018-06-18T10:54:28.773Z,101782.94
2018-06-18T10:56:57.185Z,101783.80
2018-06-18T10:59:25.595Z,101783.73
2018-06-18T11:01:53.964Z,101784.53
2018-06-18T11:04:27.738Z,101795.09
2018-06-18T11:06:56.132Z,101784.10
2018-06-18T11:09:24.498Z,101780.89
2018-06-18T11:11:53.221Z,101780.09
2018-06-18T11:14:21.595Z,101781.27
2018-06-18T11:16:55.760Z,101772.03
2018-06-18T11:19:29.509Z,101778.06
2018-06-18T11:22:05.263Z,101775.13
2018-06-18T11:24:39.047Z,101769.80
2018-06-18T11:27:07.525Z,101762.73
2018-06-18T11:29:36.152Z,101762.20
2018-06-18T11:32:04.513Z,101763.02
2018-06-18T11:34:32.972Z,101774.30
2018-06-18T11:37:01.334Z,101772.69
2018-06-18T11:39:29.794Z,101769.70
2018-06-18T11:41:58.245Z,101767.41
2018-06-18T11:44:26.565Z,101778.90
2018-06-18T11:46:54.960Z,101774.45
2018-06-18T11:49:23.331Z,101780.70
2018-06-18T11:51:51.731Z,101781.20
2018-06-18T11:54:20.118Z,101774.23
2018-06-18T11:56:48.524Z,101770.52
2018-06-18T11:59:22.130Z,101757.14
2018-06-18T12:01:56.047Z,101748.73
2018-06-18T12:04:29.615Z,101763.09
2018-06-18T12:07:03.321Z,101765.69
2018-06-18T12:09:33.247Z,101768.14
2018-06-18T12:12:01.659Z,101759.66
2018-06-18T12:14:30.046Z,101757.06
2018-06-18T12:16:58.443Z,101764.09
2018-06-18T12:19:26.846Z,101754.28
2018-06-18T12:21:55.417Z,101751.28
2018-06-18T12:24:23.898Z,101746.13
2018-06-18T12:26:52.549Z,101746.25
2018-06-18T12:29:21.896Z,101752.27
2018-06-18T12:31:50.326Z,101751.92
2018-06-18T12:34:18.859Z,101755.75
2018-06-18T12:36:47.222Z,101750.86
2018-06-18T12:39:15.620Z,101736.84
2018-06-18T12:41:51.191Z,101745.52
2018-06-18T12:44:19.611Z,101754.25
2018-06-18T12:46:53.459Z,101748.58
2018-06-18T12:49:28.007Z,101746.63
2018-06-18T12:52:01.783Z,101752.05
2018-06-18T12:54:35.542Z,101752.15
2018-06-18T12:57:05.935Z,101753.95
2018-06-18T12:59:34.374Z,101752.05
2018-06-18T13:02:08.650Z,101750.67
2018-06-18T13:04:41.466Z,101752.40
2018-06-18T13:07:09.833Z,101743.59
2018-06-18T13:09:38.245Z,101738.36
2018-06-18T13:12:06.727Z,101738.02
2018-06-18T13:14:35.125Z,101739.77
2018-06-18T13:17:03.588Z,101742.35
2018-06-18T13:19:31.966Z,101745.83
2018-06-18T13:22:00.341Z,101735.22
2018-06-18T13:24:28.827Z,101732.84
2018-06-18T13:26:57.187Z,101732.70
2018-06-18T13:29:25.579Z,101731.48
2018-06-18T13:31:53.968Z,101730.27
2018-06-18T13:34:22.353Z,101729.66
2018-06-18T13:36:54.844Z,101721.28
2018-06-18T13:39:28.582Z,101723.20
2018-06-18T13:42:02.410Z,101716.47
2018-06-18T13:45:36.213Z,101713.38
2018-06-18T13:48:10.047Z,101708.20
2018-06-18T13:50:38.443Z,101708.61
2018-06-18T13:53:06.815Z,101702.98
2018-06-18T13:55:35.227Z,101704.00
2018-06-18T13:58:03.624Z,101705.94
2018-06-18T14:00:31.999Z,101713.12
2018-06-18T14:03:00.390Z,101710.31
2018-06-18T14:05:28.754Z,101703.91
2018-06-18T14:07:57.158Z,101704.09
2018-06-18T14:10:25.519Z,101704.14
2018-06-18T14:12:53.915Z,101702.42
2018-06-18T14:15:22.278Z,101711.13
2018-06-18T14:17:50.676Z,101714.56
2018-06-18T14:20:22.175Z,101705.67
2018-06-18T14:22:50.779Z,101709.23
2018-06-18T14:25:19.314Z,101708.80
2018-06-18T14:27:47.886Z,101710.34
2018-06-18T14:30:21.581Z,101708.87
2018-06-18T14:32:55.419Z,101709.08
2018-06-18T14:35:29.333Z,101719.04
2018-06-18T14:38:03.229Z,101712.67
2018-06-18T14:40:31.636Z,101711.16
2018-06-18T14:43:00.039Z,101709.64
2018-06-18T14:45:28.418Z,101712.90
2018-06-18T14:47:56.845Z,101701.47
2018-06-18T14:50:25.210Z,101702.13
2018-06-18T14:52:53.623Z,101701.67
2018-06-18T14:55:22.018Z,101705.68
2018-06-18T14:57:50.391Z,101708.91
2018-06-18T15:00:25.879Z,101705.78
2018-06-18T15:02:54.569Z,101702.38
2018-06-18T15:05:23.970Z,101701.22
2018-06-18T15:07:52.454Z,101702.80
2018-06-18T15:10:20.920Z,101692.83
2018-06-18T15:12:52.254Z,101692.30
2018-06-18T15:15:25.854Z,101696.23
2018-06-18T15:17:54.243Z,101694.08
2018-06-18T15:20:22.729Z,101691.03
2018-06-18T15:23:08.724Z,101688.77
2018-06-18T15:25:40.159Z,101686.21
2018-06-18T15:28:08.531Z,101685.26
2018-06-18T15:30:36.917Z,101678.95
2018-06-18T15:33:05.278Z,101683.19
2018-06-18T15:35:33.887Z,101681.14
2018-06-18T15:38:02.324Z,101678.13
2018-06-18T15:40:30.682Z,101677.77
2018-06-18T15:42:59.090Z,101680.86
2018-06-18T15:45:27.514Z,101680.71
2018-06-18T15:47:55.915Z,101671.27
2018-06-18T15:50:24.301Z,101672.84
2018-06-18T15:52:52.789Z,101681.42
2018-06-18T15:55:21.184Z,101678.00
2018-06-18T15:57:49.575Z,101678.66
2018-06-18T16:00:17.946Z,101674.84
2018-06-18T16:02:46.333Z,101677.19
2018-06-18T16:05:14.715Z,101673.86
2018-06-18T16:07:43.184Z,101669.45
2018-06-18T16:10:11.561Z,101662.09
2018-06-18T16:12:39.972Z,101668.50
2018-06-18T16:15:08.352Z,101665.61
2018-06-18T16:17:36.756Z,101666.23
2018-06-18T16:20:05.339Z,101666.86
2018-06-18T16:22:33.728Z,101668.88
2018-06-18T16:25:02.101Z,101671.22
2018-06-18T16:27:30.494Z,101671.77
2018-06-18T16:29:58.862Z,101667.06
2018-06-18T16:32:27.246Z,101662.79
2018-06-18T16:34:55.624Z,101662.94
2018-06-18T16:37:24.019Z,101665.23
2018-06-18T16:39:52.395Z,101665.70
2018-06-18T16:42:20.781Z,101670.59
2018-06-18T16:44:49.159Z,101666.67
2018-06-18T16:47:17.649Z,101660.42
2018-06-18T16:49:46.034Z,101660.92
2018-06-18T16:52:14.428Z,101658.73
2018-06-18T16:54:42.822Z,101657.02
2018-06-18T16:57:11.223Z,101660.06
2018-06-18T16:59:39.604Z,101654.80
2018-06-18T17:02:08.036Z,101653.42
2018-06-18T17:04:36.409Z,101654.29
2018-06-18T17:07:04.986Z,101658.27
2018-06-18T17:09:33.363Z,101657.73
2018-06-18T17:12:01.758Z,101657.23
2018-06-18T17:14:30.155Z,101660.17
2018-06-18T17:16:58.537Z,101654.86
2018-06-18T17:19:26.940Z,101665.09
2018-06-18T17:21:55.324Z,101662.11
2018-06-18T17:24:23.724Z,101658.27
2018-06-18T17:26:52.255Z,101650.87
2018-06-18T17:29:20.650Z,101657.66
2018-06-18T17:31:49.041Z,101653.78
2018-06-18T17:34:17.472Z,101651.23
2018-06-18T17:36:45.841Z,101654.43
2018-06-18T17:39:14.484Z,101651.02
2018-06-18T17:41:42.863Z,101650.70
2018-06-18T17:44:11.245Z,101653.48
2018-06-18T17:46:39.620Z,101650.15
2018-06-18T17:49:08.107Z,101659.11
2018-06-18T17:51:36.485Z,101664.42
2018-06-18T17:54:04.884Z,101657.47
2018-06-18T17:56:33.426Z,101651.59
2018-06-18T17:59:01.823Z,101651.38
2018-06-18T18:01:30.195Z,101647.72
2018-06-18T18:03:58.595Z,101649.44
2018-06-18T18:06:26.962Z,101654.54
2018-06-18T18:08:55.378Z,101657.05
2018-06-18T18:11:23.849Z,101661.78
2018-06-18T18:13:52.180Z,101667.34
2018-06-18T18:16:20.571Z,101668.52
2018-06-18T18:18:48.971Z,101672.36
2018-06-18T18:21:17.343Z,101672.73
2018-06-18T18:23:45.759Z,101671.33
2018-06-18T18:26:14.143Z,101671.28
2018-06-18T18:28:42.566Z,101672.89
2018-06-18T18:31:10.943Z,101671.88
2018-06-18T18:33:39.311Z,101665.48
2018-06-18T18:36:07.689Z,101668.75
2018-06-18T18:38:36.178Z,101668.13
2018-06-18T18:41:04.576Z,101663.95
2018-06-18T18:43:32.937Z,101671.67
2018-06-18T18:46:01.393Z,101670.55
2018-06-18T18:48:29.759Z,101676.88
2018-06-18T18:50:58.174Z,101685.83
2018-06-18T18:53:26.627Z,101681.56
2018-06-18T18:57:05.490Z,101682.07
2018-06-18T18:59:36.309Z,101681.86
2018-06-18T19:02:04.723Z,101685.02
2018-06-18T19:04:36.386Z,101686.42
2018-06-18T19:07:05.087Z,101690.93
2018-06-18T19:09:43.679Z,101689.66
2018-06-18T19:12:12.083Z,101687.08
2018-06-18T19:14:40.454Z,101683.67
2018-06-18T19:17:08.856Z,101683.35
2018-06-18T19:19:44.991Z,101688.30
2018-06-18T19:22:13.581Z,101690.19
2018-06-18T19:24:42.435Z,101688.96
2018-06-18T19:27:11.055Z,101688.63
2018-06-18T19:29:39.749Z,101685.63
2018-06-18T19:32:08.147Z,101686.11
2018-06-18T19:34:36.523Z,101690.61
2018-06-18T19:37:05.227Z,101691.97
2018-06-18T19:39:38.479Z,101692.02
2018-06-18T19:42:07.485Z,101684.08
2018-06-18T19:44:35.855Z,101689.83
2018-06-18T19:48:14.218Z,101691.20
2018-06-18T19:50:42.619Z,101701.40
2018-06-18T19:53:11.016Z,101698.36
2018-06-18T19:55:39.373Z,101700.19
2018-06-18T19:58:07.761Z,101709.91
2018-06-18T20:00:43.035Z,101710.84
2018-06-18T20:03:11.591Z,101711.37
2018-06-18T20:05:39.954Z,101713.62
2018-06-18T20:08:12.285Z,101704.86
2018-06-18T20:10:40.658Z,101706.27
2018-06-18T20:13:09.056Z,101706.36
2018-06-18T20:15:37.427Z,101711.26
2018-06-18T20:18:05.842Z,101706.90
2018-06-18T20:20:34.339Z,101706.09
2018-06-18T20:23:03.782Z,101702.54
2018-06-18T20:25:39.954Z,101701.22
2018-06-18T20:28:08.363Z,101704.37
2018-06-18T20:30:36.740Z,101707.90
2018-06-18T20:33:05.807Z,101705.30
2018-06-18T20:35:36.820Z,101702.22
2018-06-18T20:38:05.220Z,101697.41
2018-06-18T20:40:33.594Z,101696.12
2018-06-18T20:43:02.003Z,101699.70
2018-06-18T20:45:30.638Z,101695.34
2018-06-18T20:47:59.007Z,101697.09
2018-06-18T20:50:27.431Z,101693.18
2018-06-18T20:52:55.800Z,101703.75
2018-06-18T20:55:24.229Z,101695.44
2018-06-18T20:57:52.594Z,101705.61
2018-06-18T21:00:20.979Z,101697.30
2018-06-18T21:02:49.343Z,101701.32
2018-06-18T21:05:17.730Z,101702.67
2018-06-18T21:07:46.135Z,101699.65
2018-06-18T21:10:14.522Z,101697.09
2018-06-18T21:12:43.607Z,101705.09
2018-06-18T21:15:12.003Z,101704.70
2018-06-18T21:17:40.391Z,101700.80
2018-06-18T21:20:08.787Z,101702.17
2018-06-18T21:22:37.154Z,101700.47
2018-06-18T21:25:05.581Z,101703.17
2018-06-18T21:27:33.975Z,101697.97
2018-06-18T21:30:02.375Z,101704.64
2018-06-18T21:32:30.751Z,101706.50
2018-06-18T21:34:59.143Z,101699.55
2018-06-18T21:37:27.515Z,101694.78
2018-06-18T21:39:55.911Z,101699.67
2018-06-18T21:42:24.284Z,101692.68
2018-06-18T21:44:59.338Z,101693.59
2018-06-18T21:47:27.709Z,101701.53
2018-06-18T21:49:56.103Z,101692.79
2018-06-18T21:52:24.466Z,101691.94
2018-06-18T21:54:54.486Z,101687.11
2018-06-18T21:57:22.867Z,101682.75
2018-06-18T21:59:51.235Z,101669.62
2018-06-18T22:02:19.637Z,101678.48
2018-06-18T22:04:48.007Z,101675.00
2018-06-18T22:07:16.502Z,101674.19
2018-06-18T22:09:44.875Z,101668.52
2018-06-18T22:12:13.267Z,101666.84
2018-06-18T22:14:41.639Z,101665.14
2018-06-18T22:17:10.030Z,101670.06
2018-06-18T22:19:38.409Z,101674.53
2018-06-18T22:22:06.819Z,101678.95
2018-06-18T22:24:35.188Z,101675.91
2018-06-18T22:27:03.598Z,101675.09
2018-06-18T22:29:31.971Z,101677.78
2018-06-18T22:32:00.362Z,101672.52
2018-06-18T22:34:28.735Z,101675.20
2018-06-18T22:36:57.121Z,101672.56
2018-06-18T22:39:25.481Z,101676.98
2018-06-18T22:41:53.876Z,101677.44
2018-06-18T22:44:22.237Z,101676.57
2018-06-18T22:46:50.634Z,101677.89
2018-06-18T22:49:19.010Z,101680.08
2018-06-18T22:51:47.408Z,101687.98
2018-06-18T22:54:15.779Z,101678.30
2018-06-18T22:56:44.184Z,101674.33
2018-06-18T22:59:12.547Z,101677.80
2018-06-18T23:01:40.939Z,101670.78
2018-06-18T23:04:09.311Z,101663.28
2018-06-18T23:06:37.707Z,101662.83
2018-06-18T23:09:09.190Z,101658.88
2018-06-18T23:11:37.694Z,101665.92
2018-06-18T23:14:08.751Z,101659.33
2018-06-18T23:16:37.251Z,101663.29
2018-06-18T23:19:05.812Z,101667.70
2018-06-18T23:21:34.181Z,101671.24
2018-06-18T23:24:02.572Z,101671.70
2018-06-18T23:26:31.131Z,101676.11
2018-06-18T23:29:02.826Z,101685.34
2018-06-18T23:31:31.194Z,101680.98
2018-06-18T23:33:59.603Z,101684.08
2018-06-18T23:36:27.967Z,101682.35
2018-06-18T23:38:56.358Z,101681.95
2018-06-18T23:41:26.348Z,101688.99
2018-06-18T23:43:54.734Z,101689.45
2018-06-18T23:46:23.107Z,101696.95
2018-06-18T23:48:51.502Z,101696.96
2018-06-18T23:51:19.866Z,101691.72
2018-06-18T23:53:48.275Z,101698.77
2018-06-18T23:56:16.663Z,101700.55
2018-06-18T23:58:45.064Z,101697.95
